Time;durP1;ratioP1;P1;durP2;ratioP2;P2;SDS_P1;SDS_P2;PMS_P1;PMS_P2;Temp;Humidity;BMP_temperature;BMP_pressure;BME280_temperature;BME280_humidity;BME280_pressure;Samples;Min_cycle;Max_cycle;Signal;HPM_P1;HPM_P2
2023/11/02 00:02:23;;;;;;;9.17;1.63;;;11.20;99.90;;;;;;5044525;28;37033;-75
2023/11/02 00:04:50;;;;;;;9.20;1.55;;;11.30;99.90;;;;;;5038128;28;39762;-75
2023/11/02 00:07:18;;;;;;;8.23;1.73;;;11.30;99.90;;;;;;5044176;28;38395;-75
2023/11/02 00:09:44;;;;;;;8.93;1.98;;;11.30;99.90;;;;;;5042410;28;38741;-74
2023/11/02 00:12:18;;;;;;;15.83;2.07;;;11.30;99.90;;;;;;5038557;28;36067;-74
2023/11/02 00:14:51;;;;;;;6.93;1.70;;;11.30;99.90;;;;;;5038850;28;39792;-75
2023/11/02 00:17:36;;;;;;;7.40;1.88;;;11.40;99.90;;;;;;5055398;28;37944;-74
2023/11/02 00:20:07;;;;;;;8.10;2.20;;;11.40;99.90;;;;;;5043081;28;37138;-75
2023/11/02 00:22:43;;;;;;;6.72;2.70;;;11.40;99.90;;;;;;5053337;28;48797;-75
2023/11/02 00:25:19;;;;;;;8.93;1.60;;;11.50;99.90;;;;;;5053586;28;38942;-74
2023/11/02 00:27:45;;;;;;;9.33;1.60;;;11.50;99.90;;;;;;5053818;28;37180;-74
2023/11/02 00:30:11;;;;;;;5.90;1.67;;;11.50;99.90;;;;;;5049291;28;40013;-74
2023/11/02 00:32:37;;;;;;;7.20;2.10;;;11.50;99.90;;;;;;5055942;28;37458;-75
2023/11/02 00:35:04;;;;;;;4.93;1.10;;;11.60;99.90;;;;;;5053259;28;37655;-74
2023/11/02 00:37:30;;;;;;;6.13;1.40;;;11.60;99.90;;;;;;5043097;28;47581;-75
2023/11/02 00:39:57;;;;;;;6.68;2.00;;;11.60;99.90;;;;;;5044869;28;38046;-75
2023/11/02 00:42:24;;;;;;;11.10;2.05;;;11.60;99.90;;;;;;5047242;28;38033;-77
2023/11/02 00:44:50;;;;;;;14.17;1.60;;;11.60;99.90;;;;;;5040609;28;37565;-75
2023/11/02 00:47:17;;;;;;;12.65;1.95;;;11.70;99.90;;;;;;5042199;28;37503;-75
2023/11/02 00:49:43;;;;;;;6.77;1.83;;;11.70;99.90;;;;;;5046444;28;37302;-74
2023/11/02 00:52:10;;;;;;;8.73;1.43;;;11.70;99.90;;;;;;5039246;28;36380;-75
2023/11/02 00:54:47;;;;;;;7.27;1.70;;;11.70;99.90;;;;;;5039854;28;39386;-75
2023/11/02 00:57:15;;;;;;;10.53;1.40;;;11.70;99.90;;;;;;5054288;28;38143;-74
2023/11/02 00:59:44;;;;;;;8.80;1.70;;;11.70;99.90;;;;;;5057473;28;38365;-75
2023/11/02 01:02:10;;;;;;;6.22;1.50;;;11.70;99.90;;;;;;5044986;28;36949;-75
2023/11/02 01:04:42;;;;;;;8.23;1.98;;;11.70;99.90;;;;;;5055955;28;38920;-75
2023/11/02 01:07:10;;;;;;;11.50;1.70;;;11.70;99.90;;;;;;5061011;28;37799;-75
2023/11/02 01:09:45;;;;;;;10.27;1.77;;;11.80;99.90;;;;;;5058002;28;37230;-75
2023/11/02 01:12:33;;;;;;;7.45;1.30;;;11.80;99.90;;;;;;5046283;28;36905;-75
2023/11/02 01:15:00;;;;;;;8.45;1.50;;;11.80;99.90;;;;;;5048669;28;39046;-75
2023/11/02 01:17:31;;;;;;;9.73;1.63;;;11.80;99.90;;;;;;5059648;28;38747;-74
2023/11/02 01:20:10;;;;;;;6.80;1.40;;;11.80;99.90;;;;;;5056317;28;37184;-75
2023/11/02 01:23:09;;;;;;;8.27;1.52;;;11.90;99.90;;;;;;5054770;28;48939;-74
2023/11/02 01:25:41;;;;;;;10.10;1.92;;;11.90;99.90;;;;;;5048087;28;48775;-74
2023/11/02 01:28:07;;;;;;;8.65;1.42;;;11.90;99.90;;;;;;5038335;28;39968;-76
2023/11/02 01:30:37;;;;;;;11.35;1.75;;;11.80;99.90;;;;;;5049761;28;37274;-75
2023/11/02 01:33:24;;;;;;;9.60;1.40;;;11.80;99.90;;;;;;5049918;28;36047;-75
2023/11/02 01:35:50;;;;;;;9.27;1.65;;;11.80;99.90;;;;;;5051442;28;39140;-75
2023/11/02 01:38:16;;;;;;;7.88;1.60;;;11.80;99.90;;;;;;5062498;28;38856;-75
2023/11/02 01:40:52;;;;;;;9.20;1.55;;;11.80;99.90;;;;;;5051343;28;37914;-76
2023/11/02 01:43:50;;;;;;;10.23;1.63;;;11.80;99.90;;;;;;5066533;28;38601;-74
2023/11/02 01:46:24;;;;;;;7.10;1.67;;;11.70;99.90;;;;;;5045111;28;39819;-74
2023/11/02 01:49:03;;;;;;;8.40;1.50;;;11.70;99.90;;;;;;5054121;28;37554;-75
2023/11/02 01:51:36;;;;;;;10.63;1.70;;;11.70;99.90;;;;;;5050334;28;47279;-75
2023/11/02 01:54:24;;;;;;;9.48;1.70;;;11.70;99.90;;;;;;5050208;28;35966;-75
2023/11/02 01:57:03;;;;;;;10.27;2.00;;;11.70;99.90;;;;;;5053583;28;37761;-75
2023/11/02 01:59:51;;;;;;;4.28;1.25;;;11.80;99.90;;;;;;5047650;28;48930;-75
2023/11/02 02:02:49;;;;;;;10.75;1.60;;;11.80;99.90;;;;;;5592852;22;37136;-77
2023/11/02 02:05:35;;;;;;;8.85;2.15;;;11.80;99.90;;;;;;5015957;28;36262;-77
2023/11/02 02:08:21;;;;;;;8.75;1.48;;;11.70;99.90;;;;;;5042821;28;39627;-78
2023/11/02 02:11:15;;;;;;;6.93;1.42;;;11.70;99.90;;;;;;5033274;28;48637;-77
2023/11/02 02:13:53;;;;;;;6.38;1.27;;;11.70;99.90;;;;;;5045358;28;47351;-78
2023/11/02 02:16:51;;;;;;;9.00;1.75;;;11.70;99.90;;;;;;5035584;28;35733;-77
2023/11/02 02:19:39;;;;;;;4.32;1.40;;;11.70;99.90;;;;;;5030410;28;39067;-77
2023/11/02 02:22:15;;;;;;;8.57;1.88;;;11.70;99.90;;;;;;5028270;28;39066;-77
2023/11/02 02:25:00;;;;;;;5.53;1.02;;;11.70;99.90;;;;;;5042575;28;37207;-78
2023/11/02 02:27:38;;;;;;;10.10;1.40;;;11.70;99.90;;;;;;5029905;28;37424;-77
2023/11/02 02:30:35;;;;;;;5.25;1.38;;;11.70;99.90;;;;;;5045836;28;40748;-79
2023/11/02 02:33:22;;;;;;;17.40;1.67;;;11.70;99.90;;;;;;5024424;28;48122;-77
2023/11/02 02:36:01;;;;;;;9.60;1.35;;;11.70;99.90;;;;;;5018539;28;38543;-79
2023/11/02 02:38:43;;;;;;;8.85;1.38;;;11.80;99.90;;;;;;5032966;28;47084;-78
2023/11/02 02:41:15;;;;;;;9.13;1.35;;;11.80;99.90;;;;;;5034875;28;39119;-78
2023/11/02 02:43:45;;;;;;;8.15;1.50;;;11.80;99.90;;;;;;5042011;28;38668;-78
2023/11/02 02:46:15;;;;;;;8.77;1.73;;;11.90;99.90;;;;;;5032815;28;37981;-78
2023/11/02 02:48:42;;;;;;;6.55;1.45;;;11.90;99.90;;;;;;5034363;28;37376;-78
2023/11/02 02:51:10;;;;;;;7.20;1.35;;;11.90;99.90;;;;;;5019883;28;39745;-77
2023/11/02 02:53:39;;;;;;;9.85;1.60;;;11.90;99.90;;;;;;5013815;28;39016;-78
2023/11/02 02:56:09;;;;;;;8.70;1.90;;;11.90;99.90;;;;;;5029000;28;37471;-79
2023/11/02 02:58:59;;;;;;;11.82;2.00;;;11.90;99.90;;;;;;5031874;28;38441;-78
2023/11/02 03:01:34;;;;;;;6.45;1.73;;;12.00;99.90;;;;;;5028827;28;38672;-79
2023/11/02 03:04:02;;;;;;;12.85;1.80;;;12.00;99.90;;;;;;5021561;28;39851;-78
2023/11/02 03:06:30;;;;;;;10.32;1.45;;;12.00;99.90;;;;;;5031384;28;48996;-78
2023/11/02 03:09:03;;;;;;;9.32;1.48;;;12.00;99.90;;;;;;5044786;28;37258;-78
2023/11/02 03:11:34;;;;;;;10.75;2.38;;;12.00;99.90;;;;;;5053028;28;47196;-78
2023/11/02 03:14:04;;;;;;;9.07;1.60;;;12.00;99.90;;;;;;5025378;28;39098;-78
2023/11/02 03:16:35;;;;;;;10.40;1.60;;;12.10;99.90;;;;;;5029153;28;49298;-78
2023/11/02 03:19:04;;;;;;;8.50;1.17;;;12.10;99.90;;;;;;5035431;28;36975;-78
2023/11/02 03:21:30;;;;;;;10.75;1.50;;;12.10;99.90;;;;;;5025802;28;47123;-78
2023/11/02 03:23:59;;;;;;;10.13;1.70;;;12.10;99.90;;;;;;5023142;28;39972;-78
2023/11/02 03:26:33;;;;;;;8.45;1.85;;;12.10;99.90;;;;;;5043573;28;37390;-78
2023/11/02 03:29:05;;;;;;;9.13;2.35;;;12.10;99.90;;;;;;5018470;28;37331;-78
2023/11/02 03:31:45;;;;;;;5.15;1.60;;;12.10;99.90;;;;;;5026814;28;47878;-78
2023/11/02 03:34:19;;;;;;;12.90;1.40;;;12.10;99.90;;;;;;5038392;28;37653;-78
2023/11/02 03:37:03;;;;;;;7.88;1.60;;;12.10;99.90;;;;;;5025839;28;38410;-78
2023/11/02 03:40:08;;;;;;;10.35;1.52;;;12.20;99.90;;;;;;5024570;28;49325;-78
2023/11/02 03:43:05;;;;;;;5.97;1.38;;;12.20;99.90;;;;;;5035613;28;47052;-79
2023/11/02 03:46:20;;;;;;;13.93;1.80;;;12.20;99.90;;;;;;5028691;28;47134;-78
2023/11/02 03:49:20;;;;;;;11.40;1.17;;;12.20;99.90;;;;;;4978093;28;47159;-78
2023/11/02 03:51:58;;;;;;;8.27;1.40;;;12.20;99.90;;;;;;5027912;28;48157;-79
2023/11/02 03:54:39;;;;;;;9.95;2.47;;;12.20;99.90;;;;;;5042054;28;38863;-78
2023/11/02 03:57:29;;;;;;;8.73;1.52;;;12.30;99.90;;;;;;5030651;28;39456;-78
2023/11/02 04:00:20;;;;;;;6.28;1.17;;;12.30;99.90;;;;;;5048432;28;37076;-78
2023/11/02 04:02:56;;;;;;;7.53;1.27;;;12.20;99.90;;;;;;5049091;28;47067;-78
2023/11/02 04:05:28;;;;;;;8.07;1.85;;;12.30;99.90;;;;;;5036110;28;38916;-78
2023/11/02 04:08:17;;;;;;;11.73;1.38;;;12.30;99.90;;;;;;5033449;28;39126;-78
2023/11/02 04:10:58;;;;;;;11.25;1.67;;;12.40;99.90;;;;;;5034868;28;47596;-80
2023/11/02 04:13:34;;;;;;;7.55;1.20;;;12.40;99.90;;;;;;5028053;28;37249;-79
2023/11/02 04:16:00;;;;;;;5.80;1.30;;;12.40;99.90;;;;;;5038229;28;37548;-79
2023/11/02 04:18:26;;;;;;;5.35;0.98;;;12.40;99.90;;;;;;5043506;28;42168;-78
2023/11/02 04:20:53;;;;;;;4.28;0.98;;;12.40;99.90;;;;;;5032385;28;39606;-79
2023/11/02 04:23:21;;;;;;;5.97;1.00;;;12.40;99.90;;;;;;5019374;28;37829;-78
2023/11/02 04:25:50;;;;;;;8.50;1.10;;;12.50;99.90;;;;;;5046325;28;38321;-79
2023/11/02 04:28:17;;;;;;;7.90;1.10;;;12.50;99.90;;;;;;5036448;28;37866;-79
2023/11/02 04:30:43;;;;;;;3.33;0.75;;;12.50;99.90;;;;;;5037134;28;37881;-79
2023/11/02 04:33:09;;;;;;;4.15;0.90;;;12.40;99.90;;;;;;5023926;28;35950;-78
2023/11/02 04:35:36;;;;;;;2.22;0.70;;;12.50;99.90;;;;;;5041584;28;37536;-78
2023/11/02 04:38:07;;;;;;;8.55;1.33;;;12.50;99.90;;;;;;5048207;28;37838;-78
2023/11/02 04:40:33;;;;;;;5.50;1.00;;;12.50;99.90;;;;;;5036234;28;38115;-78
2023/11/02 04:43:00;;;;;;;6.45;0.98;;;12.50;99.90;;;;;;5029173;28;36222;-79
2023/11/02 04:45:29;;;;;;;4.53;1.00;;;12.60;99.90;;;;;;5029289;28;37146;-79
2023/11/02 04:47:56;;;;;;;6.00;1.27;;;12.60;99.90;;;;;;5027929;28;39219;-79
2023/11/02 04:50:23;;;;;;;4.68;1.02;;;12.60;99.90;;;;;;5031826;28;39314;-79
2023/11/02 04:52:50;;;;;;;6.40;1.25;;;12.60;99.90;;;;;;5031345;28;38149;-79
2023/11/02 04:55:16;;;;;;;2.08;0.63;;;12.60;99.90;;;;;;5024910;28;37569;-79
2023/11/02 04:57:42;;;;;;;4.90;0.77;;;12.60;99.90;;;;;;5039485;28;38883;-79
2023/11/02 05:00:09;;;;;;;3.45;0.63;;;12.60;99.90;;;;;;5042177;28;38379;-79
2023/11/02 05:02:35;;;;;;;2.60;0.70;;;12.70;99.90;;;;;;5034731;28;37499;-79
2023/11/02 05:05:03;;;;;;;4.20;0.70;;;12.70;99.90;;;;;;5035497;28;38170;-79
2023/11/02 05:07:29;;;;;;;3.65;0.90;;;12.60;99.90;;;;;;5031610;28;38634;-79
2023/11/02 05:09:55;;;;;;;4.05;0.80;;;12.50;99.90;;;;;;5023753;28;38235;-79
2023/11/02 05:12:21;;;;;;;2.67;0.98;;;12.60;99.90;;;;;;5027714;28;36053;-79
2023/11/02 05:14:47;;;;;;;5.93;0.75;;;12.60;99.90;;;;;;5024701;28;38834;-79
2023/11/02 05:17:14;;;;;;;3.15;0.65;;;12.60;99.90;;;;;;5027580;28;37838;-79
2023/11/02 05:19:40;;;;;;;4.07;0.70;;;12.50;99.90;;;;;;5019125;28;38834;-79
2023/11/02 05:22:06;;;;;;;4.82;1.00;;;12.40;99.90;;;;;;5025990;28;38244;-79
2023/11/02 05:24:32;;;;;;;3.42;0.63;;;12.40;99.90;;;;;;5016489;28;38538;-79
2023/11/02 05:26:58;;;;;;;3.53;0.85;;;12.30;99.90;;;;;;5025739;28;38370;-79
2023/11/02 05:29:25;;;;;;;2.05;0.70;;;12.20;99.90;;;;;;5020283;28;38232;-80
2023/11/02 05:31:51;;;;;;;8.32;0.95;;;12.20;99.90;;;;;;5026257;28;36131;-79
2023/11/02 05:34:17;;;;;;;5.65;1.00;;;12.20;99.90;;;;;;5026474;28;37376;-78
2023/11/02 05:36:44;;;;;;;5.75;1.13;;;12.10;99.90;;;;;;5029929;28;37848;-79
2023/11/02 05:39:10;;;;;;;2.42;0.80;;;11.90;99.90;;;;;;5025725;28;37594;-78
2023/11/02 05:41:36;;;;;;;4.25;1.02;;;11.80;99.90;;;;;;5030526;28;37491;-78
2023/11/02 05:44:02;;;;;;;5.88;1.05;;;11.70;99.90;;;;;;5023136;28;38694;-78
2023/11/02 05:46:28;;;;;;;6.35;0.98;;;11.70;99.90;;;;;;5034322;28;38742;-79
2023/11/02 05:48:54;;;;;;;7.38;1.42;;;11.70;99.90;;;;;;5036613;28;38353;-78
2023/11/02 05:51:20;;;;;;;4.85;1.40;;;11.60;99.90;;;;;;5026659;28;37739;-78
2023/11/02 05:53:46;;;;;;;5.80;0.93;;;11.60;99.90;;;;;;5041725;28;37735;-78
2023/11/02 05:56:15;;;;;;;8.73;1.40;;;11.60;99.90;;;;;;5025078;28;37725;-78
2023/11/02 05:58:48;;;;;;;1.75;0.60;;;11.60;99.90;;;;;;5054712;28;37374;-78
2023/11/02 06:01:14;;;;;;;5.13;0.98;;;11.70;99.90;;;;;;5030111;28;37052;-79
2023/11/02 06:03:40;;;;;;;3.60;0.90;;;11.60;99.90;;;;;;5033859;28;39019;-79
2023/11/02 06:06:07;;;;;;;4.20;0.90;;;11.60;99.90;;;;;;5068314;28;38388;-78
2023/11/02 06:08:34;;;;;;;5.05;0.90;;;11.60;99.90;;;;;;5052014;28;37110;-79
2023/11/02 06:11:00;;;;;;;5.03;1.30;;;11.60;99.90;;;;;;5029948;28;36930;-78
2023/11/02 06:13:26;;;;;;;6.70;1.10;;;11.70;99.90;;;;;;5030356;28;47377;-78
2023/11/02 06:15:52;;;;;;;6.60;1.00;;;11.70;99.90;;;;;;5030616;28;37723;-78
2023/11/02 06:18:18;;;;;;;6.20;1.10;;;11.70;99.90;;;;;;5031006;28;39407;-79
2023/11/02 06:20:44;;;;;;;4.78;1.15;;;11.80;99.90;;;;;;5032800;28;37470;-79
2023/11/02 06:23:10;;;;;;;3.28;1.02;;;11.80;99.90;;;;;;5031416;28;38202;-78
2023/11/02 06:25:37;;;;;;;2.30;0.80;;;11.80;99.90;;;;;;5023807;28;39334;-78
2023/11/02 06:28:03;;;;;;;6.95;0.80;;;11.80;99.90;;;;;;5025938;28;38186;-77
2023/11/02 06:30:29;;;;;;;5.10;0.80;;;11.80;99.90;;;;;;5030279;28;37700;-78
2023/11/02 06:33:00;;;;;;;7.65;1.20;;;11.80;99.90;;;;;;5041091;28;36501;-76
2023/11/02 06:35:26;;;;;;;2.45;1.00;;;11.80;99.90;;;;;;5031934;28;47737;-78
2023/11/02 06:37:59;;;;;;;2.45;0.85;;;11.80;99.90;;;;;;5038919;28;38772;-79
2023/11/02 06:40:26;;;;;;;5.18;0.70;;;11.80;99.90;;;;;;5033592;28;36222;-78
2023/11/02 06:42:56;;;;;;;2.58;0.70;;;11.80;99.90;;;;;;5032396;28;37677;-79
2023/11/02 06:45:22;;;;;;;3.13;1.13;;;11.90;99.90;;;;;;5031925;28;37151;-79
2023/11/02 06:47:49;;;;;;;3.70;1.10;;;11.90;99.90;;;;;;5031614;28;39457;-78
2023/11/02 06:50:16;;;;;;;2.97;0.90;;;11.90;99.90;;;;;;5030515;28;37257;-78
2023/11/02 06:52:42;;;;;;;4.30;1.30;;;12.00;99.90;;;;;;5027361;28;38408;-78
2023/11/02 06:55:10;;;;;;;4.57;0.93;;;12.10;99.90;;;;;;5024593;28;37896;-77
2023/11/02 06:57:36;;;;;;;2.53;0.90;;;12.10;99.90;;;;;;5024122;28;37716;-77
2023/11/02 07:00:05;;;;;;;4.22;1.52;;;12.10;99.90;;;;;;5020503;28;36969;-78
2023/11/02 07:02:32;;;;;;;4.57;0.77;;;12.10;99.90;;;;;;5037350;28;37306;-78
2023/11/02 07:04:59;;;;;;;4.07;0.90;;;12.20;99.90;;;;;;5022749;28;37912;-77
2023/11/02 07:07:25;;;;;;;5.28;0.88;;;12.20;99.90;;;;;;5020531;28;38936;-78
2023/11/02 07:09:51;;;;;;;2.38;0.85;;;12.20;99.90;;;;;;5026009;28;36029;-77
2023/11/02 07:12:18;;;;;;;1.98;0.65;;;12.30;99.90;;;;;;5024437;28;39164;-77
2023/11/02 07:14:46;;;;;;;3.80;0.70;;;12.30;99.90;;;;;;5021780;28;37592;-78
2023/11/02 07:17:13;;;;;;;4.80;1.13;;;12.40;99.90;;;;;;5039167;28;38103;-78
2023/11/02 07:19:40;;;;;;;7.85;1.00;;;12.40;99.90;;;;;;5030337;28;36016;-78
2023/11/02 07:22:06;;;;;;;5.60;0.98;;;12.50;99.90;;;;;;5027725;28;38016;-78
2023/11/02 07:24:32;;;;;;;4.95;1.10;;;12.50;99.90;;;;;;5025858;28;38901;-78
2023/11/02 07:26:58;;;;;;;6.05;1.00;;;12.40;99.90;;;;;;5030681;28;37751;-78
2023/11/02 07:29:24;;;;;;;4.20;1.00;;;12.40;99.90;;;;;;5029425;28;37371;-77
2023/11/02 07:31:50;;;;;;;6.95;1.48;;;12.30;99.90;;;;;;5037186;28;38968;-78
2023/11/02 07:34:16;;;;;;;6.35;1.50;;;12.30;99.90;;;;;;5030149;28;39469;-78
2023/11/02 07:36:42;;;;;;;3.17;1.20;;;12.40;99.90;;;;;;5035764;28;37408;-78
2023/11/02 07:39:08;;;;;;;5.20;0.93;;;12.40;99.90;;;;;;5031627;28;36344;-77
2023/11/02 07:41:34;;;;;;;5.38;1.30;;;12.40;99.90;;;;;;5033261;28;38478;-77
2023/11/02 07:44:01;;;;;;;7.70;1.20;;;12.40;99.90;;;;;;5020834;28;39084;-77
2023/11/02 07:46:27;;;;;;;6.72;1.40;;;12.40;99.90;;;;;;5025537;28;47521;-78
2023/11/02 07:48:53;;;;;;;8.40;1.27;;;12.50;99.90;;;;;;5026667;28;37695;-78
2023/11/02 07:51:19;;;;;;;7.43;1.48;;;12.70;99.90;;;;;;5026080;28;37906;-76
2023/11/02 07:53:46;;;;;;;12.05;1.65;;;12.90;99.90;;;;;;5026672;28;39326;-76
2023/11/02 07:56:12;;;;;;;10.20;1.50;;;13.00;99.90;;;;;;5029637;28;37951;-77
2023/11/02 07:58:42;;;;;;;6.22;1.20;;;13.10;99.90;;;;;;5036292;28;37412;-77
2023/11/02 08:01:14;;;;;;;5.40;1.15;;;13.20;99.90;;;;;;5033928;28;37597;-78
2023/11/02 08:03:41;;;;;;;8.70;1.67;;;13.20;99.90;;;;;;5033229;28;37597;-76
2023/11/02 08:06:07;;;;;;;6.22;1.10;;;13.40;99.90;;;;;;5026219;28;37255;-77
2023/11/02 08:08:34;;;;;;;6.38;1.25;;;13.50;99.90;;;;;;5022442;28;36163;-77
2023/11/02 08:11:02;;;;;;;7.28;2.13;;;13.70;99.90;;;;;;5027012;28;20056;-78
2023/11/02 08:13:28;;;;;;;4.35;1.17;;;13.80;99.90;;;;;;5025848;28;46793;-77
2023/11/02 08:15:55;;;;;;;8.50;1.10;;;13.80;99.90;;;;;;5026158;28;37863;-77
2023/11/02 08:18:22;;;;;;;7.00;1.15;;;13.80;99.90;;;;;;5024193;28;36920;-77
2023/11/02 08:20:49;;;;;;;10.55;1.65;;;13.80;99.90;;;;;;5027164;28;37574;-79
2023/11/02 08:23:16;;;;;;;11.05;1.38;;;13.80;99.90;;;;;;5035843;28;38126;-79
2023/11/02 08:25:45;;;;;;;9.00;1.50;;;13.90;99.90;;;;;;5028548;28;38525;-80
2023/11/02 08:28:12;;;;;;;6.75;1.42;;;13.90;99.90;;;;;;5043843;28;37349;-80
2023/11/02 08:30:38;;;;;;;10.25;1.67;;;14.00;99.90;;;;;;5052007;28;38487;-81
2023/11/02 08:33:04;;;;;;;6.78;1.70;;;14.00;99.90;;;;;;5041000;28;41579;-81
2023/11/02 08:35:30;;;;;;;10.20;2.22;;;14.00;99.90;;;;;;5040784;28;38965;-82
2023/11/02 08:37:56;;;;;;;13.60;1.90;;;13.90;99.90;;;;;;5047610;28;35564;-80
2023/11/02 08:40:22;;;;;;;13.70;1.90;;;14.00;99.50;;;;;;5046339;28;40055;-81
2023/11/02 08:42:49;;;;;;;9.10;1.90;;;14.00;99.90;;;;;;5068751;28;38611;-81
2023/11/02 08:45:17;;;;;;;8.60;1.65;;;14.00;99.90;;;;;;5044480;28;37226;-79
2023/11/02 08:47:44;;;;;;;12.60;2.58;;;13.90;99.90;;;;;;5039511;28;37814;-81
2023/11/02 08:50:11;;;;;;;8.95;1.70;;;13.80;99.90;;;;;;5049711;28;38850;-80
2023/11/02 08:52:38;;;;;;;8.52;1.98;;;13.60;99.90;;;;;;5035499;28;37652;-80
2023/11/02 08:55:04;;;;;;;11.18;1.92;;;13.50;99.90;;;;;;5041253;28;37238;-80
2023/11/02 08:57:31;;;;;;;17.35;2.03;;;13.50;99.90;;;;;;5048870;28;37079;-81
2023/11/02 09:00:01;;;;;;;9.75;2.85;;;13.30;99.90;;;;;;5039724;28;38635;-79
2023/11/02 09:02:27;;;;;;;10.80;1.42;;;13.20;99.90;;;;;;5039503;28;38650;-79
2023/11/02 09:04:53;;;;;;;12.00;2.05;;;13.10;99.90;;;;;;5033771;28;39186;-77
2023/11/02 09:07:20;;;;;;;10.40;1.90;;;13.00;99.90;;;;;;5039904;28;37289;-78
2023/11/02 09:09:47;;;;;;;11.60;2.38;;;13.10;99.90;;;;;;5045109;28;40275;-79
2023/11/02 09:12:13;;;;;;;10.85;2.00;;;13.10;99.90;;;;;;5026240;28;38388;-80
2023/11/02 09:14:39;;;;;;;13.45;2.10;;;13.10;99.90;;;;;;5027430;28;38206;-78
2023/11/02 09:17:05;;;;;;;12.90;1.95;;;13.00;99.90;;;;;;5030903;28;37259;-78
2023/11/02 09:19:31;;;;;;;9.18;2.00;;;13.00;99.90;;;;;;5024231;28;39475;-78
2023/11/02 09:21:58;;;;;;;10.43;1.90;;;12.90;99.90;;;;;;5031143;28;37778;-78
2023/11/02 09:24:24;;;;;;;10.85;1.80;;;12.80;99.90;;;;;;5023359;28;37780;-78
2023/11/02 09:26:51;;;;;;;8.85;1.75;;;12.90;99.90;;;;;;5032272;28;37645;-78
2023/11/02 09:29:17;;;;;;;12.80;2.13;;;12.90;99.90;;;;;;5043801;28;39247;-78
2023/11/02 09:31:43;;;;;;;13.40;2.30;;;12.80;99.90;;;;;;5032738;28;39131;-79
2023/11/02 09:34:12;;;;;;;12.02;1.80;;;12.80;99.90;;;;;;5032650;28;38688;-79
2023/11/02 09:36:38;;;;;;;12.32;2.13;;;12.80;99.90;;;;;;5038142;28;36041;-77
2023/11/02 09:39:08;;;;;;;11.00;2.07;;;12.70;99.90;;;;;;5037342;28;37866;-78
2023/11/02 09:41:35;;;;;;;13.25;2.15;;;12.60;99.90;;;;;;5024151;28;37577;-77
2023/11/02 09:44:04;;;;;;;11.88;2.17;;;12.60;99.90;;;;;;5058855;28;37320;-75
2023/11/02 09:46:31;;;;;;;15.32;1.98;;;12.80;99.90;;;;;;5039737;28;35778;-77
2023/11/02 09:48:57;;;;;;;17.15;1.85;;;13.00;99.90;;;;;;5025330;28;38761;-77
2023/11/02 09:51:23;;;;;;;9.90;1.73;;;12.90;99.90;;;;;;5039317;28;39771;-79
2023/11/02 09:53:51;;;;;;;11.05;1.83;;;12.70;99.90;;;;;;5045334;28;38349;-77
2023/11/02 09:56:20;;;;;;;5.93;1.48;;;12.80;99.90;;;;;;5053422;28;35634;-79
2023/11/02 09:58:47;;;;;;;9.38;1.60;;;12.90;99.90;;;;;;5043682;28;39881;-77
2023/11/02 10:01:13;;;;;;;16.10;2.22;;;13.00;99.90;;;;;;5032848;28;37331;-78
2023/11/02 10:03:41;;;;;;;16.20;1.75;;;13.10;99.90;;;;;;5032998;28;37638;-78
2023/11/02 10:06:08;;;;;;;8.77;1.63;;;13.10;99.90;;;;;;5028773;28;37006;-78
2023/11/02 10:08:35;;;;;;;12.18;1.45;;;13.30;99.90;;;;;;5037226;28;38033;-79
2023/11/02 10:11:10;;;;;;;10.95;1.50;;;13.40;99.90;;;;;;5041808;28;38919;-76
2023/11/02 10:13:37;;;;;;;11.00;2.20;;;13.50;99.90;;;;;;5045785;28;50124;-77
2023/11/02 10:16:03;;;;;;;5.93;1.35;;;13.50;99.90;;;;;;5040840;28;37254;-78
2023/11/02 10:18:30;;;;;;;9.60;1.50;;;13.40;99.90;;;;;;5036461;28;39232;-78
2023/11/02 10:20:56;;;;;;;9.60;1.90;;;13.10;99.90;;;;;;5035920;28;37548;-78
2023/11/02 10:23:22;;;;;;;5.30;1.33;;;13.10;99.90;;;;;;5038106;28;38594;-77
2023/11/02 10:25:48;;;;;;;11.88;1.70;;;13.20;99.90;;;;;;5032420;28;37420;-77
2023/11/02 10:28:14;;;;;;;8.98;2.22;;;13.10;99.90;;;;;;5017318;28;38033;-77
2023/11/02 10:30:42;;;;;;;10.55;1.90;;;12.90;99.90;;;;;;5047182;28;38410;-78
2023/11/02 10:33:08;;;;;;;9.77;1.48;;;12.80;99.90;;;;;;5030659;28;37169;-77
2023/11/02 10:35:38;;;;;;;6.85;1.33;;;12.90;99.90;;;;;;5030082;28;36000;-78
2023/11/02 10:38:09;;;;;;;12.35;2.25;;;13.20;99.90;;;;;;5023956;28;37539;-78
2023/11/02 10:40:43;;;;;;;8.80;1.63;;;13.50;99.90;;;;;;5034427;28;39428;-78
2023/11/02 10:43:17;;;;;;;11.05;1.60;;;13.30;99.90;;;;;;5049937;28;39228;-77
2023/11/02 10:45:50;;;;;;;9.48;1.70;;;13.20;99.90;;;;;;5066596;28;36018;-78
2023/11/02 10:48:17;;;;;;;8.57;1.92;;;13.40;99.90;;;;;;5032462;28;38721;-78
2023/11/02 10:50:49;;;;;;;9.75;1.90;;;13.40;99.90;;;;;;5031291;28;38159;-78
2023/11/02 10:53:27;;;;;;;12.32;1.65;;;13.40;99.90;;;;;;5039562;28;38535;-78
2023/11/02 10:56:04;;;;;;;13.20;2.15;;;13.40;99.90;;;;;;5048294;28;36081;-78
2023/11/02 10:58:31;;;;;;;7.75;1.73;;;13.40;99.90;;;;;;5025049;28;46924;-78
2023/11/02 11:00:59;;;;;;;9.07;1.85;;;13.20;99.90;;;;;;5024487;28;37614;-77
2023/11/02 11:03:27;;;;;;;14.05;1.83;;;13.20;99.90;;;;;;5037762;28;37607;-77
2023/11/02 11:05:56;;;;;;;12.35;2.08;;;13.20;99.90;;;;;;5030740;28;35692;-78
2023/11/02 11:08:25;;;;;;;11.45;1.70;;;13.20;99.90;;;;;;5025517;28;37132;-77
2023/11/02 11:10:51;;;;;;;9.90;1.73;;;13.20;99.90;;;;;;5041450;28;37645;-78
2023/11/02 11:13:20;;;;;;;11.20;1.85;;;13.20;99.90;;;;;;5037217;28;38346;-78
2023/11/02 11:15:48;;;;;;;10.43;1.85;;;13.10;99.90;;;;;;5045238;28;40389;-78
2023/11/02 11:18:16;;;;;;;9.05;2.08;;;13.10;99.90;;;;;;5040457;28;37525;-78
2023/11/02 11:20:45;;;;;;;6.88;1.50;;;13.10;99.90;;;;;;5043474;28;39319;-78
2023/11/02 11:23:13;;;;;;;11.43;1.80;;;13.10;99.90;;;;;;5031208;28;37455;-77
2023/11/02 11:25:59;;;;;;;6.45;1.48;;;13.10;99.90;;;;;;5037072;28;37054;-77
2023/11/02 11:28:34;;;;;;;9.40;1.52;;;13.10;99.90;;;;;;5049797;28;38482;-79
2023/11/02 11:31:00;;;;;;;6.97;1.17;;;13.20;99.90;;;;;;5032675;28;37782;-78
2023/11/02 11:33:50;;;;;;;5.90;1.10;;;13.30;99.90;;;;;;5034010;28;38264;-77
2023/11/02 11:36:30;;;;;;;5.60;1.23;;;13.30;95.90;;;;;;5046302;28;37262;-79
2023/11/02 11:38:57;;;;;;;11.82;1.58;;;13.30;95.20;;;;;;5039911;28;39697;-80
2023/11/02 11:41:42;;;;;;;7.65;1.35;;;13.20;99.90;;;;;;5040185;28;38132;-77
2023/11/02 11:44:20;;;;;;;6.80;1.13;;;13.10;99.90;;;;;;5034262;28;38316;-77
2023/11/02 11:47:06;;;;;;;14.20;1.30;;;13.00;99.90;;;;;;5029060;28;36897;-77
2023/11/02 11:49:43;;;;;;;6.05;1.50;;;12.90;99.90;;;;;;5026932;28;46644;-77
2023/11/02 11:52:24;;;;;;;5.07;1.00;;;12.80;99.90;;;;;;5047185;28;39335;-77
2023/11/02 11:54:51;;;;;;;10.13;1.67;;;12.80;99.90;;;;;;5033903;28;37603;-78
2023/11/02 11:57:57;;;;;;;6.95;1.30;;;12.80;99.90;;;;;;5030223;28;35805;-78
2023/11/02 12:00:24;;;;;;;8.35;1.17;;;12.80;99.90;;;;;;5031785;28;39242;-80
2023/11/02 12:02:56;;;;;;;8.00;1.05;;;12.80;99.90;;;;;;5043266;28;37806;-79
2023/11/02 12:05:46;;;;;;;7.72;1.08;;;12.90;99.90;;;;;;5039332;28;38555;-79
2023/11/02 12:08:12;;;;;;;4.75;1.00;;;12.80;99.90;;;;;;5036069;28;35642;-79
2023/11/02 12:10:48;;;;;;;8.52;1.27;;;12.80;99.90;;;;;;5039820;28;38981;-79
2023/11/02 12:13:14;;;;;;;6.00;1.40;;;12.80;99.90;;;;;;5043150;28;39424;-80
2023/11/02 12:16:10;;;;;;;6.95;1.30;;;12.70;99.90;;;;;;5038072;28;38874;-79
2023/11/02 12:18:37;;;;;;;8.57;1.40;;;12.70;99.90;;;;;;5039541;28;48872;-79
2023/11/02 12:21:10;;;;;;;5.85;1.58;;;12.70;99.90;;;;;;5054936;28;37700;-78
2023/11/02 12:23:38;;;;;;;7.13;1.35;;;12.70;99.90;;;;;;5046857;28;38941;-79
2023/11/02 12:26:07;;;;;;;6.70;1.20;;;12.70;99.90;;;;;;5044127;28;37705;-79
2023/11/02 12:28:39;;;;;;;7.40;1.13;;;12.50;99.90;;;;;;5042836;28;37004;-79
2023/11/02 12:31:06;;;;;;;9.27;1.20;;;12.40;99.90;;;;;;5050860;28;38924;-78
2023/11/02 12:33:36;;;;;;;5.85;0.95;;;12.40;99.90;;;;;;5047282;28;39535;-78
2023/11/02 12:36:03;;;;;;;7.43;1.77;;;12.40;99.90;;;;;;5046281;28;37390;-78
2023/11/02 12:38:38;;;;;;;6.13;1.63;;;12.40;99.90;;;;;;5034326;28;36443;-79
2023/11/02 12:41:05;;;;;;;3.75;1.17;;;12.40;99.90;;;;;;5041665;28;37411;-78
2023/11/02 12:43:37;;;;;;;4.88;0.93;;;12.40;99.90;;;;;;5049279;28;40451;-79
2023/11/02 12:46:06;;;;;;;;;;;12.20;99.90;;;;;;5044479;28;39877;-79
2023/11/02 12:48:34;;;;;;;5.28;0.90;;;12.20;99.90;;;;;;5031156;28;49147;-78
2023/11/02 12:51:35;;;;;;;7.63;0.90;;;12.00;99.90;;;;;;5025572;28;39950;-78
2023/11/02 12:54:08;;;;;;;6.23;1.10;;;11.90;99.90;;;;;;4989956;28;48290;-78
2023/11/02 12:56:34;;;;;;;7.15;1.27;;;11.80;99.90;;;;;;5028095;28;38380;-78
2023/11/02 12:59:05;;;;;;;7.33;1.37;;;11.70;99.90;;;;;;5040495;28;35712;-78
2023/11/02 13:01:53;;;;;;;6.33;1.07;;;11.60;99.90;;;;;;5041181;28;47071;-78
2023/11/02 13:04:23;;;;;;;6.10;1.20;;;11.60;99.90;;;;;;5037565;28;38229;-77
2023/11/02 13:06:51;;;;;;;5.47;0.87;;;11.70;99.90;;;;;;5041741;28;39331;-77